Time;durP1;ratioP1;P1;durP2;ratioP2;P2;SDS_P1;SDS_P2;PMS_P1;PMS_P2;Temp;Humidity;BMP_temperature;BMP_pressure;BME280_temperature;BME280_humidity;BME280_pressure;Samples;Min_cycle;Max_cycle;Signal;HPM_P1;HPM_P2
2021/03/09 00:00:13;;;;;;;1.40;1.30;;;0.30;98.00;;;;;;5048525;28;20547;-69
2021/03/09 00:02:40;;;;;;;1.20;1.00;;;0.20;98.00;;;;;;5050689;28;20459;-69
2021/03/09 00:05:07;;;;;;;1.47;1.47;;;0.20;98.00;;;;;;5048446;28;20510;-69
2021/03/09 00:07:34;;;;;;;1.20;1.10;;;0.30;98.00;;;;;;5050510;28;20484;-69
2021/03/09 00:10:01;;;;;;;1.20;1.00;;;0.30;98.00;;;;;;5048540;28;20465;-69
2021/03/09 00:12:28;;;;;;;1.30;1.10;;;0.20;98.00;;;;;;5049422;28;20464;-69
2021/03/09 00:14:57;;;;;;;1.20;1.10;;;0.20;98.00;;;;;;5048326;28;20568;-69
2021/03/09 00:17:24;;;;;;;1.50;1.40;;;0.20;98.00;;;;;;5065751;28;20452;-69
2021/03/09 00:19:51;;;;;;;1.70;1.40;;;0.10;98.00;;;;;;5048623;28;21101;-69
2021/03/09 00:22:17;;;;;;;1.20;1.10;;;0.20;98.00;;;;;;5050736;28;20971;-69
2021/03/09 00:24:44;;;;;;;1.50;1.20;;;0.30;98.00;;;;;;5048364;28;20970;-69
2021/03/09 00:27:10;;;;;;;2.43;2.07;;;0.30;98.00;;;;;;5053871;28;20870;-69
2021/03/09 00:29:37;;;;;;;1.20;1.10;;;0.30;98.00;;;;;;5051583;28;20944;-69
2021/03/09 00:32:05;;;;;;;1.20;1.00;;;0.20;98.00;;;;;;5054248;28;20464;-69
2021/03/09 00:34:33;;;;;;;9.83;3.07;;;0.10;98.00;;;;;;5051945;28;20496;-69
2021/03/09 00:36:59;;;;;;;1.97;1.60;;;0.00;98.00;;;;;;5054219;28;20496;-69
2021/03/09 00:39:26;;;;;;;5.27;1.93;;;-0.10;98.00;;;;;;5051534;28;20507;-69
2021/03/09 00:41:53;;;;;;;1.30;1.10;;;-0.30;98.00;;;;;;5054037;28;20538;-69
2021/03/09 00:44:20;;;;;;;1.30;1.13;;;-0.20;98.00;;;;;;5051672;28;20472;-69
2021/03/09 00:46:48;;;;;;;1.77;1.43;;;0.00;98.00;;;;;;5054125;28;21021;-69
2021/03/09 00:49:14;;;;;;;2.30;1.43;;;0.10;98.00;;;;;;5051378;28;20578;-69
2021/03/09 00:51:42;;;;;;;1.93;1.87;;;0.00;98.00;;;;;;5054210;28;20833;-69
2021/03/09 00:54:09;;;;;;;1.60;1.20;;;-0.20;98.00;;;;;;5051717;28;20492;-69
2021/03/09 00:56:35;;;;;;;1.27;1.23;;;-0.10;98.00;;;;;;5069251;28;20464;-69
2021/03/09 00:59:02;;;;;;;1.20;0.90;;;-0.10;98.00;;;;;;5051409;28;20563;-69
2021/03/09 01:01:30;;;;;;;1.20;1.10;;;-0.10;98.00;;;;;;5053688;28;20490;-69
2021/03/09 01:03:56;;;;;;;1.20;1.00;;;0.00;98.00;;;;;;5051455;28;20959;-69
2021/03/09 01:06:23;;;;;;;1.20;1.10;;;0.00;98.00;;;;;;5069103;28;20479;-69
2021/03/09 01:08:50;;;;;;;1.80;1.63;;;-0.20;98.00;;;;;;5066447;28;20484;-69
2021/03/09 01:11:17;;;;;;;1.77;1.50;;;-0.40;98.00;;;;;;5053502;28;20865;-69
2021/03/09 01:13:44;;;;;;;1.40;1.10;;;-0.60;98.00;;;;;;5051157;28;21287;-69
2021/03/09 01:16:10;;;;;;;1.20;1.00;;;-0.70;98.00;;;;;;5053405;28;20923;-69
2021/03/09 01:18:37;;;;;;;1.33;1.27;;;-0.60;98.00;;;;;;5050835;28;20492;-69
2021/03/09 01:21:04;;;;;;;1.97;1.87;;;-0.60;98.00;;;;;;5052974;28;20532;-69
2021/03/09 01:23:30;;;;;;;2.30;2.20;;;-0.40;98.00;;;;;;5050798;28;20460;-69
2021/03/09 01:25:57;;;;;;;1.57;1.33;;;-0.40;98.00;;;;;;5053233;28;20492;-68
2021/03/09 01:28:24;;;;;;;6.03;1.93;;;-0.40;98.00;;;;;;5065812;28;20522;-69
2021/03/09 01:30:51;;;;;;;7.43;2.43;;;-0.50;98.00;;;;;;5068231;28;20490;-69
2021/03/09 01:33:17;;;;;;;1.20;1.10;;;-0.60;98.00;;;;;;5050760;28;20495;-69
2021/03/09 01:35:44;;;;;;;3.30;1.60;;;-0.60;98.00;;;;;;5052825;28;20515;-69
2021/03/09 01:38:11;;;;;;;1.20;1.00;;;-0.70;98.00;;;;;;5049938;28;20805;-69
2021/03/09 01:40:38;;;;;;;1.30;1.10;;;-0.60;98.00;;;;;;5052961;28;20517;-69
2021/03/09 01:43:06;;;;;;;1.47;1.37;;;-0.70;98.00;;;;;;5052418;28;20470;-68
2021/03/09 01:45:32;;;;;;;1.60;1.43;;;-0.70;98.00;;;;;;5052331;28;20466;-68
2021/03/09 01:48:03;;;;;;;1.20;1.00;;;-0.80;98.00;;;;;;5052982;28;20839;-68
2021/03/09 01:50:35;;;;;;;1.20;1.00;;;-0.60;98.00;;;;;;5051246;28;20455;-69
2021/03/09 01:53:04;;;;;;;1.20;1.00;;;-0.40;98.00;;;;;;5053017;28;20451;-69
2021/03/09 01:55:31;;;;;;;2.60;1.70;;;-0.50;98.00;;;;;;5050768;28;20653;-68
2021/03/09 01:57:59;;;;;;;2.20;1.50;;;-0.60;98.00;;;;;;5052765;28;20461;-69
2021/03/09 02:00:27;;;;;;;1.97;1.30;;;-0.80;98.00;;;;;;5050293;28;20898;-68
2021/03/09 02:02:54;;;;;;;1.50;1.40;;;-0.80;98.00;;;;;;5052643;28;20495;-68
2021/03/09 02:05:20;;;;;;;1.20;1.10;;;-0.90;98.00;;;;;;5050075;28;20492;-68
2021/03/09 02:07:47;;;;;;;1.97;1.80;;;-0.90;98.00;;;;;;5067736;28;20480;-68
2021/03/09 02:10:15;;;;;;;1.20;1.17;;;-0.80;98.00;;;;;;5050155;28;20463;-69
2021/03/09 02:12:56;;;;;;;1.47;1.40;;;-0.80;98.00;;;;;;5052321;28;20463;-69
2021/03/09 02:15:32;;;;;;;1.73;1.67;;;-0.70;98.00;;;;;;5049946;28;20473;-69
2021/03/09 02:18:09;;;;;;;1.20;0.90;;;-0.80;98.00;;;;;;5052180;28;20455;-69
2021/03/09 02:21:17;;;;;;;1.20;1.20;;;-0.70;98.00;;;;;;5051813;28;20466;-69
2021/03/09 02:24:08;;;;;;;1.20;1.20;;;-0.60;98.00;;;;;;5065208;28;20945;-69
2021/03/09 02:26:51;;;;;;;1.80;1.33;;;-0.70;98.00;;;;;;5051856;28;20287;-69
2021/03/09 02:29:32;;;;;;;1.30;1.20;;;-0.80;98.00;;;;;;5049461;28;20483;-69
2021/03/09 02:32:01;;;;;;;1.20;1.00;;;-0.80;98.00;;;;;;5051883;28;20478;-69
2021/03/09 02:34:31;;;;;;;1.20;1.10;;;-0.80;98.00;;;;;;5049495;28;20469;-69
2021/03/09 02:36:59;;;;;;;1.20;1.00;;;-0.80;98.00;;;;;;5051747;28;20491;-69
2021/03/09 02:39:27;;;;;;;2.13;1.83;;;-0.70;98.00;;;;;;5049224;28;20488;-69
2021/03/09 02:41:58;;;;;;;1.40;1.23;;;-1.00;98.00;;;;;;5066902;28;20482;-69
2021/03/09 02:44:26;;;;;;;1.20;1.20;;;-0.90;98.00;;;;;;5049619;28;20480;-69
2021/03/09 02:46:53;;;;;;;2.03;1.33;;;-0.80;98.00;;;;;;5051707;28;20662;-69
2021/03/09 02:49:25;;;;;;;1.20;1.10;;;-0.70;98.00;;;;;;5049419;28;20522;-69
2021/03/09 02:51:52;;;;;;;1.20;1.10;;;-0.90;98.00;;;;;;5051803;28;20460;-68
2021/03/09 02:54:21;;;;;;;1.20;1.20;;;-0.80;98.00;;;;;;5049693;28;20492;-69
2021/03/09 02:56:49;;;;;;;1.20;1.00;;;-1.00;98.00;;;;;;5051552;28;20475;-69
2021/03/09 02:59:17;;;;;;;1.20;1.00;;;-0.90;98.00;;;;;;5049248;28;20466;-68
2021/03/09 03:01:46;;;;;;;2.73;1.97;;;-1.10;98.00;;;;;;5051517;28;20487;-68
2021/03/09 03:04:18;;;;;;;1.20;1.00;;;-1.10;98.00;;;;;;5049144;28;20465;-69
2021/03/09 03:06:46;;;;;;;1.20;1.00;;;-1.00;98.00;;;;;;5051508;28;20475;-69
2021/03/09 03:09:17;;;;;;;1.60;1.40;;;-1.00;98.00;;;;;;5048963;28;20490;-69
2021/03/09 03:11:44;;;;;;;2.53;1.60;;;-1.00;98.00;;;;;;5066187;28;20457;-69
2021/03/09 03:14:12;;;;;;;2.30;1.80;;;-1.20;98.00;;;;;;5048742;28;20458;-69
2021/03/09 03:16:40;;;;;;;1.65;1.33;;;-1.30;98.00;;;;;;5050910;28;20458;-69
2021/03/09 03:19:08;;;;;;;6.13;1.25;;;-1.30;98.00;;;;;;5049038;28;20225;-68
2021/03/09 03:21:37;;;;;;;1.60;1.30;;;-1.40;98.00;;;;;;5050944;28;20211;-68
2021/03/09 03:24:07;;;;;;;2.50;1.57;;;-1.40;98.00;;;;;;5049156;28;20265;-68
2021/03/09 03:26:37;;;;;;;3.50;2.20;;;-1.40;98.00;;;;;;5050994;28;20465;-68
2021/03/09 03:29:06;;;;;;;1.97;1.50;;;-1.40;98.00;;;;;;5063825;28;20487;-68
2021/03/09 03:31:33;;;;;;;1.20;1.00;;;-1.50;98.00;;;;;;5051024;28;20462;-69
2021/03/09 03:33:59;;;;;;;1.20;1.05;;;-1.40;98.00;;;;;;5048776;28;20459;-68
2021/03/09 03:36:26;;;;;;;1.87;1.83;;;-1.40;98.00;;;;;;5051039;28;20203;-68
2021/03/09 03:38:55;;;;;;;1.20;0.93;;;-1.20;98.00;;;;;;5048450;28;20798;-68
2021/03/09 03:41:23;;;;;;;1.50;1.23;;;-1.10;98.00;;;;;;5050826;28;20906;-68
2021/03/09 03:43:49;;;;;;;1.30;1.20;;;-1.30;98.00;;;;;;5048713;28;20826;-68
2021/03/09 03:46:16;;;;;;;1.20;1.10;;;-1.40;98.00;;;;;;5050632;28;20844;-68
2021/03/09 03:48:46;;;;;;;1.20;1.10;;;-1.40;98.00;;;;;;5048445;28;20631;-68
2021/03/09 03:51:14;;;;;;;1.60;1.33;;;-1.50;98.00;;;;;;5051117;28;21010;-68
2021/03/09 03:53:49;;;;;;;5.40;1.40;;;-1.60;98.00;;;;;;5048532;28;20462;-68
2021/03/09 03:56:28;;;;;;;1.20;0.95;;;-1.60;98.00;;;;;;5065424;28;20229;-68
2021/03/09 03:59:01;;;;;;;1.60;1.13;;;-1.40;98.00;;;;;;5048768;28;20199;-68
2021/03/09 04:01:30;;;;;;;1.55;1.52;;;-1.40;98.00;;;;;;5053351;28;21073;-68
2021/03/09 04:03:57;;;;;;;2.63;2.43;;;-1.50;98.00;;;;;;5052264;28;20258;-68
2021/03/09 04:06:26;;;;;;;3.10;2.08;;;-1.60;98.00;;;;;;5054644;28;20462;-68
2021/03/09 04:08:57;;;;;;;1.30;1.10;;;-1.60;98.00;;;;;;5052304;28;20321;-68
2021/03/09 04:11:26;;;;;;;1.50;1.40;;;-1.70;98.00;;;;;;5054642;28;20235;-68
2021/03/09 04:13:53;;;;;;;1.58;1.48;;;-1.60;98.00;;;;;;5052183;28;20566;-68
2021/03/09 04:16:20;;;;;;;1.45;1.38;;;-1.70;98.00;;;;;;5054412;28;20210;-68
2021/03/09 04:18:48;;;;;;;1.20;1.20;;;-1.50;98.00;;;;;;5052274;28;20212;-68
2021/03/09 04:21:15;;;;;;;1.20;1.10;;;-1.50;98.00;;;;;;5054429;28;20204;-68
2021/03/09 04:23:43;;;;;;;1.20;1.10;;;-1.50;98.00;;;;;;5051915;28;20277;-69
2021/03/09 04:26:10;;;;;;;1.20;0.90;;;-1.50;98.00;;;;;;5054343;28;20561;-68
2021/03/09 04:28:40;;;;;;;1.40;1.10;;;-1.60;98.00;;;;;;5052071;28;20512;-68
2021/03/09 04:31:07;;;;;;;2.00;1.90;;;-1.50;98.00;;;;;;5054252;28;20199;-68
2021/03/09 04:33:34;;;;;;;1.20;1.10;;;-1.40;98.00;;;;;;5051560;28;20489;-68
2021/03/09 04:36:01;;;;;;;2.40;2.00;;;-1.30;98.00;;;;;;5054197;28;20490;-68
2021/03/09 04:38:28;;;;;;;1.83;1.77;;;-1.40;98.00;;;;;;5051819;28;20449;-68
2021/03/09 04:40:55;;;;;;;1.40;1.30;;;-1.40;98.00;;;;;;5053940;28;20464;-68
2021/03/09 04:43:22;;;;;;;1.20;1.10;;;-1.30;98.00;;;;;;5053447;28;20460;-68
2021/03/09 04:45:49;;;;;;;1.30;1.30;;;-1.30;98.00;;;;;;5052484;28;20464;-68
2021/03/09 04:48:16;;;;;;;1.20;1.10;;;-1.40;98.00;;;;;;5053885;28;20518;-68
2021/03/09 04:50:45;;;;;;;1.50;1.20;;;-1.30;98.00;;;;;;5051803;28;20525;-68
2021/03/09 04:53:13;;;;;;;1.30;1.30;;;-1.30;98.00;;;;;;5053897;28;20487;-68
2021/03/09 04:55:39;;;;;;;1.90;1.80;;;-1.30;98.00;;;;;;5050159;28;20484;-68
2021/03/09 04:58:06;;;;;;;1.50;1.20;;;-1.50;98.00;;;;;;5054029;28;20662;-68
2021/03/09 05:00:32;;;;;;;1.90;1.80;;;-1.60;98.00;;;;;;5066857;28;20876;-68
2021/03/09 05:03:00;;;;;;;1.20;1.00;;;-1.60;98.00;;;;;;5069100;28;20973;-68
2021/03/09 05:05:26;;;;;;;1.20;1.10;;;-1.70;98.00;;;;;;5051485;28;20455;-68
2021/03/09 05:07:53;;;;;;;1.40;1.30;;;-1.70;98.00;;;;;;5053551;28;20211;-68
2021/03/09 05:10:20;;;;;;;1.30;1.10;;;-1.60;98.00;;;;;;5051320;28;20991;-68
2021/03/09 05:12:47;;;;;;;2.43;1.70;;;-1.60;98.00;;;;;;5052232;28;20234;-68
2021/03/09 05:15:14;;;;;;;1.30;1.10;;;-1.60;98.00;;;;;;5051220;28;20467;-68
2021/03/09 05:17:41;;;;;;;2.67;2.33;;;-1.70;98.00;;;;;;5053339;28;20239;-68
2021/03/09 05:20:11;;;;;;;1.20;1.00;;;-1.60;98.00;;;;;;5051269;28;20238;-68
2021/03/09 05:22:38;;;;;;;1.40;1.30;;;-1.50;98.00;;;;;;5053145;28;20490;-68
2021/03/09 05:25:05;;;;;;;1.60;1.50;;;-1.50;98.00;;;;;;5050912;28;20462;-68
2021/03/09 05:27:33;;;;;;;1.20;1.17;;;-1.40;98.00;;;;;;5053151;28;20956;-68
2021/03/09 05:29:59;;;;;;;1.20;1.00;;;-1.30;98.00;;;;;;5050416;28;20525;-68
2021/03/09 05:32:29;;;;;;;1.20;1.07;;;-1.50;98.00;;;;;;5052822;28;20467;-68
2021/03/09 05:34:55;;;;;;;2.78;1.98;;;-1.60;98.00;;;;;;5065854;28;20545;-68
2021/03/09 05:37:24;;;;;;;1.20;1.00;;;-1.70;98.00;;;;;;5052862;28;20824;-68
2021/03/09 05:39:50;;;;;;;1.20;1.20;;;-1.90;98.00;;;;;;5049070;28;20988;-68
2021/03/09 05:42:17;;;;;;;1.20;1.00;;;-1.90;98.00;;;;;;5052949;28;20208;-68
2021/03/09 05:44:44;;;;;;;1.20;1.00;;;-1.90;98.00;;;;;;5050383;28;20226;-68
2021/03/09 05:47:11;;;;;;;1.27;1.17;;;-1.70;98.00;;;;;;5052714;28;20545;-68
2021/03/09 05:49:37;;;;;;;2.33;1.80;;;-1.60;98.00;;;;;;5050183;28;20489;-68
2021/03/09 05:52:05;;;;;;;2.50;1.90;;;-1.70;98.00;;;;;;5053033;28;20863;-68
2021/03/09 05:54:32;;;;;;;1.20;1.20;;;-1.60;98.00;;;;;;5050567;28;20466;-68
2021/03/09 05:56:59;;;;;;;1.20;1.10;;;-1.60;98.00;;;;;;5052940;28;20513;-68
2021/03/09 05:59:25;;;;;;;1.57;1.30;;;-1.50;98.00;;;;;;5065663;28;20453;-68
2021/03/09 06:01:54;;;;;;;1.30;1.10;;;-1.50;98.00;;;;;;5052760;28;20485;-68
2021/03/09 06:04:21;;;;;;;1.20;1.10;;;-1.60;98.00;;;;;;5050497;28;20475;-68
2021/03/09 06:06:48;;;;;;;1.70;1.50;;;-1.60;98.00;;;;;;5052462;28;20509;-68
2021/03/09 06:09:41;;;;;;;3.70;2.70;;;-1.50;98.00;;;;;;5050100;28;20487;-68
2021/03/09 06:12:10;;;;;;;1.63;1.57;;;-1.30;98.00;;;;;;5052492;28;20960;-68
2021/03/09 06:14:39;;;;;;;1.20;1.10;;;-1.30;98.00;;;;;;5050051;28;20563;-68
2021/03/09 06:17:07;;;;;;;1.10;0.90;;;-1.10;98.00;;;;;;5067371;28;20500;-68
2021/03/09 06:19:45;;;;;;;3.20;1.73;;;-1.10;98.00;;;;;;5049720;28;20451;-68
2021/03/09 06:22:12;;;;;;;1.60;1.30;;;-1.40;98.00;;;;;;5052193;28;20454;-68
2021/03/09 06:24:40;;;;;;;1.50;1.47;;;-1.50;98.00;;;;;;5049538;28;20504;-68
2021/03/09 06:27:25;;;;;;;1.83;1.77;;;-1.30;98.00;;;;;;5052039;28;20442;-68
2021/03/09 06:29:52;;;;;;;1.55;1.33;;;-1.20;98.00;;;;;;5065169;28;20227;-68
2021/03/09 06:32:20;;;;;;;3.10;2.90;;;-1.10;98.00;;;;;;5051976;28;20212;-68
2021/03/09 06:34:47;;;;;;;1.63;1.20;;;-1.10;98.00;;;;;;5049415;28;20876;-68
2021/03/09 06:37:15;;;;;;;2.65;1.67;;;-1.10;98.00;;;;;;5051900;28;20496;-68
2021/03/09 06:39:51;;;;;;;1.50;1.40;;;-1.00;98.00;;;;;;5064608;28;20204;-68
2021/03/09 06:42:20;;;;;;;2.33;1.70;;;-1.00;98.00;;;;;;5051818;28;20291;-69
2021/03/09 06:44:52;;;;;;;3.77;1.87;;;-0.90;98.00;;;;;;5049275;28;20469;-69
2021/03/09 06:47:31;;;;;;;3.83;2.53;;;-0.90;98.00;;;;;;5051666;28;20585;-69
2021/03/09 06:49:57;;;;;;;1.77;1.63;;;-0.80;98.00;;;;;;5049392;28;20476;-69
2021/03/09 06:52:24;;;;;;;4.90;2.23;;;-0.60;98.00;;;;;;5051478;28;20877;-69
2021/03/09 06:54:53;;;;;;;1.70;1.63;;;-0.50;98.00;;;;;;5049204;28;20511;-69
2021/03/09 06:57:19;;;;;;;1.20;1.17;;;-0.50;98.00;;;;;;5052026;28;20458;-69
2021/03/09 06:59:48;;;;;;;1.63;1.30;;;-0.50;98.00;;;;;;5049307;28;20460;-69
2021/03/09 07:02:16;;;;;;;3.47;1.97;;;-0.40;98.00;;;;;;5067013;28;20467;-69
2021/03/09 07:04:45;;;;;;;2.90;1.63;;;-0.30;98.00;;;;;;5049025;28;20449;-69
2021/03/09 07:07:14;;;;;;;1.97;1.77;;;-0.20;98.00;;;;;;5051624;28;20466;-69
2021/03/09 07:09:52;;;;;;;3.67;2.30;;;-0.10;98.00;;;;;;5049067;28;20577;-69
2021/03/09 07:12:19;;;;;;;1.37;1.17;;;-0.10;98.00;;;;;;5051438;28;20482;-69
2021/03/09 07:14:46;;;;;;;1.20;1.00;;;0.00;98.00;;;;;;5049014;28;20464;-69
2021/03/09 07:17:15;;;;;;;1.20;1.10;;;0.10;98.00;;;;;;5051380;28;20485;-69
2021/03/09 07:19:43;;;;;;;1.70;1.60;;;0.20;98.00;;;;;;5047576;28;20456;-69
2021/03/09 07:22:11;;;;;;;1.20;1.07;;;0.30;98.00;;;;;;5051064;28;20864;-69
2021/03/09 07:24:43;;;;;;;1.40;1.20;;;0.30;98.00;;;;;;5048643;28;20486;-69
2021/03/09 07:27:11;;;;;;;1.80;1.57;;;0.50;98.00;;;;;;5050932;28;20464;-69
2021/03/09 07:29:45;;;;;;;1.40;1.40;;;0.80;98.00;;;;;;5048477;28;20492;-69
2021/03/09 07:32:14;;;;;;;10.30;3.53;;;0.90;98.00;;;;;;5051156;28;20459;-69
2021/03/09 07:34:43;;;;;;;1.20;1.20;;;0.80;98.00;;;;;;5063724;28;20495;-69
2021/03/09 07:37:09;;;;;;;1.20;1.00;;;0.90;98.00;;;;;;5054912;28;20985;-69
2021/03/09 07:39:39;;;;;;;3.47;1.97;;;0.90;98.00;;;;;;5052859;28;20533;-68
2021/03/09 07:42:08;;;;;;;1.80;1.50;;;1.00;98.00;;;;;;5055047;28;20539;-68
2021/03/09 07:44:38;;;;;;;5.30;1.97;;;1.10;98.00;;;;;;5052621;28;20456;-69
2021/03/09 07:47:07;;;;;;;2.00;1.87;;;1.00;98.00;;;;;;5054829;28;20554;-69
2021/03/09 07:49:35;;;;;;;2.80;1.73;;;1.00;98.00;;;;;;5052674;28;20492;-69
2021/03/09 07:52:20;;;;;;;1.20;1.10;;;1.00;98.00;;;;;;5055442;28;20491;-70
2021/03/09 07:55:18;;;;;;;1.73;1.63;;;1.10;98.00;;;;;;5052647;28;20469;-69
2021/03/09 07:57:45;;;;;;;1.20;1.07;;;1.20;98.00;;;;;;5053718;28;20558;-70
2021/03/09 08:00:14;;;;;;;1.50;1.23;;;1.30;98.00;;;;;;5052620;28;20453;-70
2021/03/09 08:02:44;;;;;;;1.30;1.20;;;1.40;98.00;;;;;;5053726;28;20536;-69
2021/03/09 08:05:16;;;;;;;3.10;1.67;;;1.40;98.00;;;;;;5067895;28;20465;-69
2021/03/09 08:07:49;;;;;;;1.87;1.53;;;1.60;98.00;;;;;;5054924;28;20523;-69
2021/03/09 08:10:39;;;;;;;1.83;1.73;;;1.70;98.00;;;;;;5052336;28;21100;-69
2021/03/09 08:13:26;;;;;;;1.57;1.20;;;1.80;98.00;;;;;;5054653;28;20461;-69
2021/03/09 08:16:31;;;;;;;1.57;1.50;;;1.80;98.00;;;;;;5052084;28;20814;-69
2021/03/09 08:19:07;;;;;;;1.47;1.37;;;1.80;98.00;;;;;;5052108;28;20547;-69
2021/03/09 08:21:52;;;;;;;1.30;1.23;;;1.90;98.00;;;;;;5054273;28;20463;-69
2021/03/09 08:24:19;;;;;;;1.43;1.37;;;2.00;98.00;;;;;;5051940;28;20872;-69
2021/03/09 08:26:48;;;;;;;2.07;1.93;;;2.10;98.00;;;;;;5054285;28;21034;-72
2021/03/09 08:29:34;;;;;;;2.07;1.63;;;2.10;98.00;;;;;;5051558;28;20485;-69
2021/03/09 08:32:38;;;;;;;1.43;1.33;;;2.20;98.00;;;;;;5053804;28;20460;-69
2021/03/09 08:35:38;;;;;;;1.67;1.40;;;2.30;98.00;;;;;;5049824;28;20470;-73
2021/03/09 08:38:20;;;;;;;1.67;1.60;;;2.20;98.00;;;;;;5053356;28;20464;-73
2021/03/09 08:41:10;;;;;;;1.67;1.57;;;2.20;98.00;;;;;;5051146;28;21013;-72
2021/03/09 08:43:38;;;;;;;1.73;1.73;;;2.30;98.00;;;;;;5053469;28;20473;-71
2021/03/09 08:46:07;;;;;;;2.43;2.07;;;2.50;98.00;;;;;;5065810;28;20498;-71
2021/03/09 08:48:54;;;;;;;2.27;1.30;;;2.70;98.00;;;;;;5053029;28;20821;-70
2021/03/09 08:51:45;;;;;;;1.30;1.17;;;2.80;98.00;;;;;;5053528;28;20483;-68
2021/03/09 08:54:36;;;;;;;5.17;2.90;;;3.00;98.00;;;;;;5051348;28;20465;-68
2021/03/09 08:57:13;;;;;;;1.40;1.37;;;3.10;98.00;;;;;;5052882;28;20507;-68
2021/03/09 08:59:42;;;;;;;2.23;1.57;;;3.00;98.00;;;;;;5051520;28;20840;-68
2021/03/09 09:02:16;;;;;;;1.60;1.30;;;3.00;98.00;;;;;;5053676;28;20507;-68
2021/03/09 09:04:45;;;;;;;2.63;1.80;;;3.10;98.00;;;;;;5051348;28;20461;-68
2021/03/09 09:07:24;;;;;;;1.47;1.30;;;2.90;98.00;;;;;;5053616;28;20464;-68
2021/03/09 09:09:55;;;;;;;1.30;1.13;;;3.20;98.00;;;;;;5050976;28;20535;-68
2021/03/09 09:12:31;;;;;;;1.73;1.73;;;3.40;98.00;;;;;;5053581;28;20461;-68
2021/03/09 09:15:19;;;;;;;6.70;1.83;;;3.50;98.00;;;;;;5051026;28;20481;-69
2021/03/09 09:17:48;;;;;;;1.40;1.30;;;3.40;98.00;;;;;;5053363;28;20464;-69
2021/03/09 09:20:18;;;;;;;1.20;0.90;;;3.40;98.00;;;;;;5066331;28;20501;-68
2021/03/09 09:22:46;;;;;;;2.43;1.37;;;3.50;98.00;;;;;;5053328;28;20512;-69
2021/03/09 09:25:15;;;;;;;1.70;1.57;;;3.70;98.00;;;;;;5050881;28;20465;-69
2021/03/09 09:27:47;;;;;;;2.20;1.60;;;3.80;98.00;;;;;;5053290;28;20483;-69
2021/03/09 09:30:17;;;;;;;2.47;1.50;;;3.90;98.00;;;;;;5050735;28;21008;-68
2021/03/09 09:32:46;;;;;;;1.47;1.20;;;4.10;98.00;;;;;;5052916;28;20454;-68
2021/03/09 09:35:13;;;;;;;1.50;1.20;;;4.30;98.00;;;;;;5050685;28;20512;-69
2021/03/09 09:37:53;;;;;;;4.60;3.00;;;4.40;98.00;;;;;;5053000;28;20461;-69
2021/03/09 09:40:23;;;;;;;2.77;2.47;;;4.50;98.00;;;;;;5066117;28;20454;-69
2021/03/09 09:43:01;;;;;;;1.70;1.50;;;4.60;98.00;;;;;;5052742;28;20457;-68
2021/03/09 09:45:29;;;;;;;1.53;1.30;;;4.50;98.00;;;;;;5050616;28;20482;-69
2021/03/09 09:47:58;;;;;;;2.90;2.23;;;4.40;98.00;;;;;;5052904;28;20534;-69
2021/03/09 09:50:25;;;;;;;2.27;1.63;;;4.30;98.00;;;;;;5050858;28;20489;-69
2021/03/09 09:52:54;;;;;;;1.30;1.13;;;4.20;98.00;;;;;;5052876;28;20551;-69
2021/03/09 09:55:23;;;;;;;1.20;1.10;;;4.20;98.00;;;;;;5050678;28;20457;-69
2021/03/09 09:57:51;;;;;;;1.30;1.17;;;4.20;98.00;;;;;;5052048;28;20486;-69
2021/03/09 10:00:20;;;;;;;1.30;1.30;;;4.20;98.00;;;;;;5050333;28;20459;-69
2021/03/09 10:03:12;;;;;;;3.40;2.57;;;4.30;98.00;;;;;;5052574;28;20471;-69
2021/03/09 10:05:39;;;;;;;1.37;1.33;;;4.50;98.00;;;;;;5050181;28;20889;-69
2021/03/09 10:08:12;;;;;;;2.37;2.20;;;4.80;98.00;;;;;;5052498;28;20481;-69
2021/03/09 10:10:40;;;;;;;2.30;1.73;;;5.00;98.00;;;;;;5050074;28;20455;-69
2021/03/09 10:13:21;;;;;;;2.67;2.03;;;5.30;98.00;;;;;;5052415;28;20841;-69
2021/03/09 10:15:49;;;;;;;5.77;2.90;;;5.50;98.00;;;;;;5050168;28;20960;-69
2021/03/09 10:18:26;;;;;;;1.20;1.10;;;5.40;98.00;;;;;;5052221;28;20535;-73
2021/03/09 10:21:00;;;;;;;1.50;1.40;;;5.50;98.00;;;;;;5049819;28;20470;-73
2021/03/09 10:23:28;;;;;;;5.13;2.60;;;5.80;98.00;;;;;;5052121;28;20516;-74
2021/03/09 10:26:02;;;;;;;3.73;1.40;;;5.90;97.00;;;;;;5049557;28;20517;-75
2021/03/09 10:28:31;;;;;;;1.93;1.53;;;6.00;97.50;;;;;;5052088;28;20487;-74
2021/03/09 10:30:58;;;;;;;1.30;1.10;;;6.10;96.60;;;;;;5049214;28;20461;-74
2021/03/09 10:33:25;;;;;;;1.70;1.60;;;6.20;96.00;;;;;;5052134;28;20466;-75
2021/03/09 10:36:10;;;;;;;1.30;1.20;;;6.20;96.30;;;;;;5049510;28;20856;-75
2021/03/09 10:38:37;;;;;;;1.40;1.30;;;6.40;95.60;;;;;;5051760;28;20465;-74
2021/03/09 10:41:05;;;;;;;2.13;1.40;;;6.60;94.50;;;;;;5049604;28;20456;-75
2021/03/09 10:43:46;;;;;;;2.47;1.30;;;6.50;94.90;;;;;;5051503;28;20465;-72
2021/03/09 10:46:13;;;;;;;3.00;2.13;;;6.40;95.10;;;;;;5049434;28;20513;-72
2021/03/09 10:48:41;;;;;;;3.30;2.20;;;6.60;95.00;;;;;;5052007;28;20496;-71
2021/03/09 10:51:19;;;;;;;2.03;1.47;;;6.60;95.10;;;;;;5049414;28;20952;-72
2021/03/09 10:53:48;;;;;;;2.17;1.57;;;6.70;94.00;;;;;;5051891;28;20467;-72
2021/03/09 10:56:14;;;;;;;2.93;2.00;;;6.80;95.10;;;;;;5049539;28;20452;-72
2021/03/09 10:58:41;;;;;;;2.07;1.50;;;6.90;93.40;;;;;;5051606;28;20471;-72
2021/03/09 11:01:08;;;;;;;2.00;1.70;;;7.00;93.20;;;;;;5049516;28;20460;-73
2021/03/09 11:03:34;;;;;;;3.47;2.17;;;7.10;93.30;;;;;;5051287;28;20468;-73
2021/03/09 11:06:01;;;;;;;1.90;1.53;;;7.20;93.00;;;;;;5049204;28;20465;-73
2021/03/09 11:08:27;;;;;;;1.60;1.43;;;7.10;92.40;;;;;;5051537;28;20474;-73
2021/03/09 11:10:56;;;;;;;1.70;1.40;;;7.10;92.30;;;;;;5049316;28;20457;-73
2021/03/09 11:13:22;;;;;;;2.17;1.90;;;7.10;92.20;;;;;;5051423;28;20495;-73
2021/03/09 11:15:49;;;;;;;1.50;1.30;;;7.30;91.90;;;;;;5049356;28;20462;-73
2021/03/09 11:18:15;;;;;;;2.23;1.90;;;7.40;91.20;;;;;;5051153;28;20461;-74
2021/03/09 11:20:43;;;;;;;2.17;1.60;;;7.40;92.10;;;;;;5049077;28;20474;-73
2021/03/09 11:23:10;;;;;;;1.20;1.10;;;7.50;91.80;;;;;;5051425;28;20598;-73
2021/03/09 11:25:37;;;;;;;1.27;1.27;;;7.70;90.60;;;;;;5049039;28;20464;-73
2021/03/09 11:28:06;;;;;;;2.93;2.20;;;7.80;89.70;;;;;;5051184;28;20494;-73
2021/03/09 11:30:34;;;;;;;2.07;1.67;;;7.90;89.30;;;;;;5054635;28;20487;-72
2021/03/09 11:33:00;;;;;;;3.50;1.30;;;8.10;89.40;;;;;;5051094;28;20468;-73
2021/03/09 11:35:27;;;;;;;3.83;1.73;;;8.10;88.60;;;;;;5048824;28;20496;-73
2021/03/09 11:37:53;;;;;;;1.60;1.37;;;8.10;87.10;;;;;;5051180;28;20944;-73
2021/03/09 11:40:20;;;;;;;1.50;1.40;;;8.10;87.70;;;;;;5049101;28;20460;-73
2021/03/09 11:42:47;;;;;;;1.30;1.20;;;8.20;87.70;;;;;;5051055;28;20481;-74
2021/03/09 11:45:15;;;;;;;1.50;1.40;;;8.30;87.30;;;;;;5048844;28;20474;-73
2021/03/09 11:47:45;;;;;;;2.70;2.07;;;8.40;87.90;;;;;;5051596;28;20530;-75
2021/03/09 11:50:22;;;;;;;1.20;1.10;;;8.40;87.20;;;;;;5049461;28;20543;-73
2021/03/09 11:52:49;;;;;;;2.97;2.40;;;8.60;87.60;;;;;;5051135;28;21134;-74
2021/03/09 11:55:16;;;;;;;1.47;1.30;;;8.70;86.40;;;;;;5052886;28;20474;-73
2021/03/09 11:57:42;;;;;;;1.60;1.50;;;8.80;86.20;;;;;;5050943;28;20462;-74
2021/03/09 12:00:10;;;;;;;1.73;1.20;;;8.80;85.30;;;;;;5048621;28;20456;-73
2021/03/09 12:02:39;;;;;;;2.40;1.77;;;8.90;84.80;;;;;;5067131;28;20488;-73
2021/03/09 12:05:08;;;;;;;1.60;1.60;;;8.80;83.70;;;;;;5053344;28;20465;-73
2021/03/09 12:07:34;;;;;;;1.63;1.60;;;8.80;84.60;;;;;;5069135;28;21012;-73
2021/03/09 12:10:01;;;;;;;4.43;1.83;;;8.80;84.60;;;;;;5051118;28;20546;-73
2021/03/09 12:12:28;;;;;;;1.50;1.20;;;8.80;84.70;;;;;;5051303;28;20475;-73
2021/03/09 12:14:55;;;;;;;4.37;2.47;;;8.50;84.60;;;;;;5050125;28;20489;-74
2021/03/09 12:17:22;;;;;;;2.60;2.10;;;8.60;83.90;;;;;;5052126;28;20497;-74
2021/03/09 12:19:50;;;;;;;2.03;1.67;;;8.50;83.90;;;;;;5050001;28;20472;-74
2021/03/09 12:22:17;;;;;;;1.30;1.27;;;8.60;82.30;;;;;;5054547;28;20550;-74
2021/03/09 12:24:43;;;;;;;1.40;1.10;;;8.70;81.30;;;;;;5053770;28;20465;-73
2021/03/09 12:27:10;;;;;;;1.40;1.30;;;8.80;78.60;;;;;;5054719;28;20527;-73
2021/03/09 12:29:37;;;;;;;1.20;1.10;;;8.80;79.80;;;;;;5053077;28;20487;-74
2021/03/09 12:32:04;;;;;;;1.20;1.10;;;8.90;80.30;;;;;;5058191;28;20503;-74
2021/03/09 12:34:31;;;;;;;1.30;1.27;;;9.00;79.90;;;;;;5073423;28;20460;-73
2021/03/09 12:36:59;;;;;;;1.53;1.47;;;9.00;79.60;;;;;;5075409;28;20464;-74
2021/03/09 12:39:25;;;;;;;1.20;1.00;;;9.00;78.90;;;;;;5072297;28;20457;-82
2021/03/09 12:41:52;;;;;;;1.77;1.57;;;9.10;77.90;;;;;;5073168;28;20796;-82
2021/03/09 12:44:19;;;;;;;2.07;1.40;;;9.30;77.40;;;;;;5072046;28;20458;-77
2021/03/09 12:46:45;;;;;;;1.97;1.60;;;9.30;75.40;;;;;;5075715;28;20523;-77
2021/03/09 12:49:12;;;;;;;1.77;1.73;;;9.40;75.60;;;;;;5073809;28;20490;-77
2021/03/09 12:51:39;;;;;;;1.60;1.23;;;9.20;75.70;;;;;;5076340;28;20455;-76
2021/03/09 12:54:08;;;;;;;2.53;1.43;;;9.50;74.60;;;;;;5073852;28;20534;-75
2021/03/09 12:56:35;;;;;;;1.20;1.03;;;9.60;72.10;;;;;;5072937;28;20464;-78
2021/03/09 12:59:03;;;;;;;1.47;1.30;;;9.40;71.70;;;;;;5074098;28;20447;-86
2021/03/09 13:01:31;;;;;;;3.43;2.03;;;9.40;71.80;;;;;;5071039;28;20449;-74
2021/03/09 13:03:59;;;;;;;1.73;1.73;;;9.50;72.40;;;;;;5072956;28;20873;-75
2021/03/09 13:06:25;;;;;;;1.40;1.20;;;9.60;73.20;;;;;;5070524;28;20461;-75